createdAt,value
2023-03-25T00:00:53.210Z,99612.50
2023-03-25T00:03:22.278Z,99620.97
2023-03-25T00:05:50.218Z,99610.47
2023-03-25T00:08:18.094Z,99613.97
2023-03-25T00:10:47.073Z,99610.69
2023-03-25T00:13:16.284Z,99609.94
2023-03-25T00:15:47.617Z,99607.75
2023-03-25T00:18:17.367Z,99615.72
2023-03-25T00:20:45.952Z,99619.69
2023-03-25T00:23:14.126Z,99614.69
2023-03-25T00:25:41.790Z,99610.06
2023-03-25T00:28:10.649Z,99614.03
2023-03-25T00:30:39.213Z,99610.38
2023-03-25T00:33:10.689Z,99610.06
2023-03-25T00:35:39.515Z,99610.00
2023-03-25T00:38:07.886Z,99610.00
2023-03-25T00:40:35.608Z,99607.53
2023-03-25T00:43:05.340Z,99605.16
2023-03-25T00:45:35.245Z,99617.78
2023-03-25T00:48:05.023Z,99613.13
2023-03-25T00:50:34.450Z,99611.78
2023-03-25T00:53:03.324Z,99614.28
2023-03-25T00:55:30.962Z,99616.78
2023-03-25T00:57:59.396Z,99624.75
2023-03-25T01:00:27.131Z,99612.00
2023-03-25T01:02:56.294Z,99618.81
2023-03-25T01:05:24.877Z,99612.97
2023-03-25T01:07:52.549Z,99613.78
2023-03-25T01:10:20.323Z,99612.84
2023-03-25T01:12:48.197Z,99610.84
2023-03-25T01:15:16.242Z,99599.22
2023-03-25T01:17:43.990Z,99602.06
2023-03-25T01:20:13.656Z,99604.16
2023-03-25T01:22:41.380Z,99602.06
2023-03-25T01:25:09.544Z,99598.22
2023-03-25T01:27:37.264Z,99599.44
2023-03-25T01:30:05.579Z,99597.94
2023-03-25T01:32:33.411Z,99600.22
2023-03-25T01:35:00.990Z,99596.91
2023-03-25T01:37:33.982Z,99600.59
2023-03-25T01:40:02.267Z,99594.09
2023-03-25T01:42:29.882Z,99592.94
2023-03-25T01:45:32.645Z,99594.91
2023-03-25T01:48:06.020Z,99591.25
2023-03-25T01:50:35.898Z,99594.25
2023-03-25T01:53:06.078Z,99589.78
2023-03-25T01:55:36.291Z,99584.28
2023-03-25T01:58:11.816Z,99589.91
2023-03-25T02:00:40.569Z,99588.78
2023-03-25T02:03:13.660Z,99592.09
2023-03-25T02:05:49.858Z,99596.91
2023-03-25T02:08:22.515Z,99594.09
2023-03-25T02:10:52.108Z,99595.75
2023-03-25T02:13:21.289Z,99582.16
2023-03-25T02:16:09.106Z,99590.06
2023-03-25T02:18:48.270Z,99576.63
2023-03-25T02:21:56.638Z,99588.78
2023-03-25T02:25:01.901Z,99581.47
2023-03-25T02:27:48.313Z,99592.47
2023-03-25T02:30:52.413Z,99579.16
2023-03-25T02:33:38.680Z,99577.13
2023-03-25T02:36:38.692Z,99575.75
2023-03-25T02:39:14.235Z,99577.22
2023-03-25T02:41:51.054Z,99577.69
2023-03-25T02:44:26.106Z,99572.38
2023-03-25T02:46:57.596Z,99575.19
2023-03-25T02:49:28.783Z,99573.22
2023-03-25T02:52:03.385Z,99574.19
2023-03-25T02:54:37.092Z,99577.19
2023-03-25T02:57:07.695Z,99575.97
2023-03-25T02:59:38.309Z,99587.59
2023-03-25T03:02:11.366Z,99578.81
2023-03-25T03:04:49.280Z,99571.44
2023-03-25T03:07:24.958Z,99570.59
2023-03-25T03:18:10.400Z,99575.13
2023-03-25T03:20:45.159Z,99572.78
2023-03-25T03:23:26.701Z,99568.75
2023-03-25T03:26:02.338Z,99573.19
2023-03-25T03:28:34.041Z,99566.34
2023-03-25T03:31:07.061Z,99567.19
2023-03-25T03:33:41.395Z,99559.53
2023-03-25T03:36:13.471Z,99566.97
2023-03-25T03:38:46.189Z,99552.22
2023-03-25T03:41:20.001Z,99563.72
2023-03-25T03:43:52.740Z,99565.84
2023-03-25T03:46:25.913Z,99560.84
2023-03-25T03:48:58.292Z,99562.66
2023-03-25T03:51:32.432Z,99567.97
2023-03-25T03:54:03.935Z,99567.13
2023-03-25T03:56:41.267Z,99561.28
2023-03-25T03:59:14.261Z,99569.72
2023-03-25T04:01:46.020Z,99557.28
2023-03-25T04:04:17.166Z,99561.03
2023-03-25T04:06:50.586Z,99566.06
2023-03-25T04:09:27.434Z,99565.34
2023-03-25T04:11:59.536Z,99564.66
2023-03-25T04:14:27.037Z,99564.25
2023-03-25T04:16:56.393Z,99567.47
2023-03-25T04:19:27.600Z,99570.13
2023-03-25T04:21:55.421Z,99569.97
2023-03-25T04:24:25.077Z,99573.28
2023-03-25T04:26:52.983Z,99561.03
2023-03-25T04:29:20.665Z,99561.03
2023-03-25T04:31:50.140Z,99564.66
2023-03-25T04:34:20.509Z,99566.19
2023-03-25T04:36:50.294Z,99561.75
2023-03-25T04:39:22.417Z,99557.97
2023-03-25T04:41:51.079Z,99557.13
2023-03-25T04:44:18.611Z,99556.97
2023-03-25T04:49:38.848Z,99554.53
2023-03-25T04:52:09.213Z,99556.81
2023-03-25T04:54:39.304Z,99560.16
2023-03-25T04:57:08.583Z,99552.44
2023-03-25T04:59:37.051Z,99555.53
2023-03-25T05:02:06.059Z,99561.50
2023-03-25T05:04:34.598Z,99555.91
2023-03-25T05:07:02.425Z,99558.00
2023-03-25T05:09:31.554Z,99551.66
2023-03-25T05:11:59.171Z,99558.13
2023-03-25T05:14:27.897Z,99564.41
2023-03-25T05:16:59.230Z,99552.28
2023-03-25T05:19:53.347Z,99555.31
2023-03-25T05:22:22.382Z,99563.81
2023-03-25T05:24:53.322Z,99557.63
2023-03-25T05:27:20.877Z,99561.38
2023-03-25T05:29:48.561Z,99552.28
2023-03-25T05:32:17.616Z,99566.81
2023-03-25T05:34:46.497Z,99569.47
2023-03-25T05:37:14.366Z,99566.19
2023-03-25T05:39:45.630Z,99574.91
2023-03-25T05:42:15.157Z,99574.41
2023-03-25T05:44:50.804Z,99567.28
2023-03-25T05:47:21.714Z,99576.34
2023-03-25T05:49:51.310Z,99576.59
2023-03-25T05:52:20.562Z,99569.56
2023-03-25T05:54:50.590Z,99574.03
2023-03-25T05:57:21.390Z,99573.44
2023-03-25T05:59:51.115Z,99583.06
2023-03-25T06:02:18.725Z,99582.97
2023-03-25T06:04:50.443Z,99579.31
2023-03-25T06:07:20.645Z,99585.13
2023-03-25T06:09:48.713Z,99576.50
2023-03-25T06:12:17.658Z,99577.25
2023-03-25T06:14:48.341Z,99578.50
2023-03-25T06:17:19.008Z,99585.38
2023-03-25T06:19:47.150Z,99589.59
2023-03-25T06:22:15.464Z,99582.47
2023-03-25T06:24:43.681Z,99588.94
2023-03-25T06:27:16.294Z,99572.34
2023-03-25T06:29:49.305Z,99578.00
2023-03-25T06:32:19.308Z,99568.25
2023-03-25T06:34:46.885Z,99587.78
2023-03-25T06:37:18.544Z,99583.03
2023-03-25T06:39:49.634Z,99585.28
2023-03-25T06:42:20.994Z,99575.69
2023-03-25T06:45:08.453Z,99581.66
2023-03-25T06:47:45.957Z,99584.91
2023-03-25T06:50:13.538Z,99590.44
2023-03-25T06:52:41.415Z,99586.94
2023-03-25T06:55:09.682Z,99587.94
2023-03-25T06:57:37.906Z,99590.06
2023-03-25T07:00:09.098Z,99591.44
2023-03-25T07:02:36.672Z,99590.00
2023-03-25T07:05:05.365Z,99593.91
2023-03-25T07:07:34.148Z,99575.38
2023-03-25T07:10:01.787Z,99577.50
2023-03-25T07:12:29.361Z,99569.34
2023-03-25T07:14:59.089Z,99570.16
2023-03-25T07:17:28.381Z,99567.28
2023-03-25T07:19:57.831Z,99563.09
2023-03-25T07:22:25.413Z,99564.41
2023-03-25T07:24:53.184Z,99566.91
2023-03-25T07:27:21.345Z,99583.47
2023-03-25T07:29:59.698Z,99568.00
2023-03-25T07:32:28.714Z,99562.56
2023-03-25T07:34:56.423Z,99566.88
2023-03-25T07:37:25.439Z,99554.13
2023-03-25T07:39:52.969Z,99564.28
2023-03-25T07:42:20.558Z,99564.09
2023-03-25T07:45:16.961Z,99566.03
2023-03-25T07:47:50.564Z,99567.31
2023-03-25T07:50:18.203Z,99577.31
2023-03-25T07:52:46.202Z,99573.91
2023-03-25T07:55:16.908Z,99577.56
2023-03-25T07:57:45.470Z,99581.94
2023-03-25T08:00:14.571Z,99585.38
2023-03-25T08:02:42.630Z,99575.13
2023-03-25T08:05:12.387Z,99583.84
2023-03-25T08:07:40.446Z,99592.47
2023-03-25T08:10:09.646Z,99597.56
2023-03-25T08:12:38.329Z,99594.94
2023-03-25T08:15:06.666Z,99597.59
2023-03-25T08:17:36.241Z,99611.56
2023-03-25T08:20:05.601Z,99609.75
2023-03-25T08:22:34.817Z,99613.44
2023-03-25T08:25:02.441Z,99613.13
2023-03-25T08:27:32.468Z,99616.63
2023-03-25T08:30:00.730Z,99609.78
2023-03-25T08:32:29.392Z,99616.63
2023-03-25T08:34:58.040Z,99613.16
2023-03-25T08:37:26.362Z,99613.00
2023-03-25T08:39:57.965Z,99613.88
2023-03-25T08:42:26.319Z,99624.22
2023-03-25T08:44:54.417Z,99602.88
2023-03-25T08:47:22.098Z,99608.81
2023-03-25T08:49:49.697Z,99601.97
2023-03-25T08:52:17.227Z,99618.28
2023-03-25T08:54:44.808Z,99604.66
2023-03-25T08:57:13.954Z,99610.97
2023-03-25T08:59:42.113Z,99607.84
2023-03-25T09:02:11.582Z,99593.03
2023-03-25T09:04:39.468Z,99595.34
2023-03-25T09:07:12.067Z,99613.66
2023-03-25T09:09:40.250Z,99611.00
2023-03-25T09:12:10.529Z,99601.16
2023-03-25T09:14:39.696Z,99609.47
2023-03-25T09:17:10.066Z,99610.66
2023-03-25T09:19:39.409Z,99615.66
2023-03-25T09:22:08.129Z,99613.00
2023-03-25T09:24:35.895Z,99608.66
2023-03-25T09:27:04.391Z,99607.66
2023-03-25T09:29:32.223Z,99604.84
2023-03-25T09:32:01.241Z,99614.66
2023-03-25T09:34:29.354Z,99616.97
2023-03-25T09:36:57.174Z,99631.97
2023-03-25T09:39:25.313Z,99620.31
2023-03-25T09:42:10.604Z,99627.28
2023-03-25T09:44:52.321Z,99625.13
2023-03-25T09:47:24.699Z,99628.28
2023-03-25T09:49:58.812Z,99622.94
2023-03-25T09:52:32.397Z,99637.09
2023-03-25T09:55:03.998Z,99625.94
2023-03-25T09:57:33.367Z,99628.06
2023-03-25T10:00:06.929Z,99641.81
2023-03-25T10:02:41.882Z,99640.91
2023-03-25T10:05:27.323Z,99643.97
2023-03-25T10:08:09.392Z,99635.81
2023-03-25T10:10:41.476Z,99639.19
2023-03-25T10:13:20.115Z,99634.34
2023-03-25T10:15:55.316Z,99636.06
2023-03-25T10:18:45.403Z,99632.09
2023-03-25T10:21:20.622Z,99638.28
2023-03-25T10:24:21.156Z,99650.47
2023-03-25T10:26:55.314Z,99632.75
2023-03-25T10:29:31.532Z,99627.78
2023-03-25T10:32:04.331Z,99637.59
2023-03-25T10:34:39.213Z,99641.75
2023-03-25T10:37:12.350Z,99650.75
2023-03-25T10:39:45.280Z,99652.41
2023-03-25T10:42:26.598Z,99653.88
2023-03-25T10:44:55.346Z,99667.88
2023-03-25T10:47:26.749Z,99667.31
2023-03-25T10:49:56.426Z,99667.63
2023-03-25T10:52:24.743Z,99663.66
2023-03-25T10:54:56.336Z,99659.66
2023-03-25T10:57:28.347Z,99660.34
2023-03-25T11:00:01.764Z,99655.19
2023-03-25T11:02:33.034Z,99657.72
2023-03-25T11:05:06.449Z,99654.53
2023-03-25T11:07:38.312Z,99651.09
2023-03-25T11:10:17.908Z,99651.22
2023-03-25T11:12:46.520Z,99647.88
2023-03-25T11:15:17.127Z,99650.53
2023-03-25T11:17:48.891Z,99655.72
2023-03-25T11:20:23.454Z,99649.88
2023-03-25T11:22:57.328Z,99638.75
2023-03-25T11:25:30.621Z,99638.28
2023-03-25T11:28:31.539Z,99636.78
2023-03-25T11:31:12.244Z,99636.28
2023-03-25T11:33:42.149Z,99631.47
2023-03-25T11:36:30.231Z,99623.13
2023-03-25T11:39:00.404Z,99633.28
2023-03-25T11:41:34.276Z,99635.09
2023-03-25T11:44:06.128Z,99631.59
2023-03-25T11:46:43.387Z,99622.28
2023-03-25T11:49:17.727Z,99612.16
2023-03-25T11:51:46.922Z,99617.66
2023-03-25T11:54:42.476Z,99608.69
2023-03-25T11:57:16.151Z,99608.69
2023-03-25T11:59:46.496Z,99607.66
2023-03-25T12:02:26.367Z,99615.16
2023-03-25T12:05:00.268Z,99637.25
2023-03-25T12:07:41.841Z,99642.59
2023-03-25T12:10:18.432Z,99660.66
2023-03-25T12:13:01.061Z,99654.31
2023-03-25T12:15:40.792Z,99664.25
2023-03-25T12:18:36.333Z,99645.94
2023-03-25T12:21:11.901Z,99646.09
2023-03-25T12:23:47.137Z,99651.56
2023-03-25T12:26:18.552Z,99652.41
2023-03-25T12:29:07.687Z,99643.75
2023-03-25T12:31:47.543Z,99636.78
2023-03-25T12:34:27.209Z,99640.63
2023-03-25T12:37:06.224Z,99651.78
2023-03-25T12:39:49.298Z,99644.97
2023-03-25T12:42:33.695Z,99643.59
2023-03-25T12:45:24.362Z,99643.22
2023-03-25T12:47:58.455Z,99639.84
2023-03-25T12:50:39.433Z,99634.88
2023-03-25T12:53:24.440Z,99642.84
2023-03-25T12:56:06.917Z,99637.81
2023-03-25T12:58:52.638Z,99639.66
2023-03-25T13:01:28.231Z,99636.47
2023-03-25T13:04:43.588Z,99628.66
2023-03-25T13:07:15.813Z,99623.78
2023-03-25T13:09:54.624Z,99616.81
2023-03-25T13:12:32.193Z,99620.03
2023-03-25T13:15:07.651Z,99617.75
2023-03-25T13:17:40.382Z,99623.25
2023-03-25T13:20:12.347Z,99626.78
2023-03-25T13:22:48.312Z,99613.69
2023-03-25T13:25:26.341Z,99606.09
2023-03-25T13:27:58.007Z,99612.09
2023-03-25T13:30:32.409Z,99629.84
2023-03-25T13:33:06.458Z,99640.31
2023-03-25T13:35:43.825Z,99638.56
2023-03-25T13:38:17.296Z,99645.88
2023-03-25T13:40:54.626Z,99642.31
2023-03-25T13:43:29.892Z,99636.53
2023-03-25T13:46:26.783Z,99636.16
2023-03-25T13:49:00.382Z,99627.50
2023-03-25T13:51:28.503Z,99615.91
2023-03-25T13:54:00.126Z,99619.22
2023-03-25T13:57:10.353Z,99620.25
2023-03-25T14:00:13.465Z,99625.09
2023-03-25T14:03:11.465Z,99625.28
2023-03-25T14:06:09.707Z,99633.34
2023-03-25T14:09:18.756Z,99635.69
2023-03-25T14:11:52.323Z,99629.19
2023-03-25T14:14:23.330Z,99625.84
2023-03-25T14:16:54.626Z,99644.41
2023-03-25T14:19:29.427Z,99637.44
2023-03-25T14:21:57.546Z,99642.03
2023-03-25T14:24:30.349Z,99628.56
2023-03-25T14:27:29.140Z,99632.84
2023-03-25T14:30:00.343Z,99637.38
2023-03-25T14:32:34.400Z,99651.53
2023-03-25T14:35:41.278Z,99630.41
2023-03-25T14:38:49.465Z,99636.34
2023-03-25T14:41:18.578Z,99629.72
2023-03-25T14:43:53.028Z,99626.34
2023-03-25T14:49:22.191Z,99628.84
2023-03-25T14:51:53.365Z,99624.22
2023-03-25T14:54:29.528Z,99635.50
2023-03-25T14:57:06.670Z,99634.00
2023-03-25T14:59:38.789Z,99642.00
2023-03-25T15:02:15.114Z,99652.47
2023-03-25T15:04:45.059Z,99641.66
2023-03-25T15:07:19.574Z,99638.75
2023-03-25T15:10:18.010Z,99643.25
2023-03-25T15:12:53.330Z,99645.13
2023-03-25T15:15:32.945Z,99628.66
2023-03-25T15:18:01.070Z,99639.63
2023-03-25T15:20:35.901Z,99626.66
2023-03-25T15:23:41.298Z,99636.81
2023-03-25T15:26:16.358Z,99631.16
2023-03-25T15:29:00.627Z,99623.88
2023-03-25T15:31:40.645Z,99634.84
2023-03-25T15:34:19.408Z,99624.69
2023-03-25T15:37:14.081Z,99639.94
2023-03-25T15:40:05.040Z,99641.28
2023-03-25T15:42:51.387Z,99631.16
2023-03-25T15:45:57.781Z,99629.50
2023-03-25T15:48:55.345Z,99627.34
2023-03-25T15:51:47.830Z,99630.38
2023-03-25T15:54:26.304Z,99632.31
2023-03-25T15:56:59.018Z,99626.00
2023-03-25T15:59:34.989Z,99635.31
2023-03-25T16:02:06.304Z,99616.47
2023-03-25T16:04:40.633Z,99614.03
2023-03-25T16:07:10.790Z,99613.72
2023-03-25T16:09:44.652Z,99623.03
2023-03-25T16:12:12.414Z,99636.31
2023-03-25T16:14:44.119Z,99670.34
2023-03-25T16:17:12.761Z,99702.50
2023-03-25T16:19:44.297Z,99673.78
2023-03-25T16:22:16.707Z,99682.38
2023-03-25T16:24:46.277Z,99675.81
2023-03-25T16:27:20.526Z,99684.03
2023-03-25T16:29:50.035Z,99672.00
2023-03-25T16:32:20.888Z,99670.31
2023-03-25T16:34:53.720Z,99658.59
2023-03-25T16:37:25.102Z,99662.81
2023-03-25T16:39:54.443Z,99665.34
2023-03-25T16:42:28.034Z,99681.97
2023-03-25T16:44:55.990Z,99666.88
2023-03-25T16:47:24.489Z,99669.16
2023-03-25T16:49:56.334Z,99673.84
2023-03-25T16:52:29.441Z,99670.06
2023-03-25T16:55:30.343Z,99679.75
2023-03-25T16:58:01.035Z,99674.06
2023-03-25T17:00:43.445Z,99686.44
2023-03-25T17:03:17.581Z,99684.47
2023-03-25T17:05:54.833Z,99687.28
2023-03-25T17:08:23.435Z,99702.03
2023-03-25T17:10:56.282Z,99701.22
2023-03-25T17:13:27.102Z,99711.31
2023-03-25T17:15:54.999Z,99718.28
2023-03-25T17:18:28.685Z,99765.03
2023-03-25T17:21:01.330Z,99813.19
2023-03-25T17:23:36.522Z,99810.38
2023-03-25T17:26:09.476Z,99795.28
2023-03-25T17:28:39.790Z,99774.97
2023-03-25T17:31:29.552Z,99763.56
2023-03-25T17:34:05.310Z,99783.09
2023-03-25T17:36:36.279Z,99789.94
2023-03-25T17:39:06.904Z,99797.31
2023-03-25T17:41:38.681Z,99821.97
2023-03-25T17:44:08.459Z,99825.06
2023-03-25T17:46:36.249Z,99809.72
2023-03-25T17:49:15.563Z,99810.25
2023-03-25T17:51:45.502Z,99804.00
2023-03-25T17:54:14.396Z,99802.47
2023-03-25T17:56:42.334Z,99802.63
2023-03-25T17:59:17.350Z,99807.91
2023-03-25T18:01:46.220Z,99815.56
2023-03-25T18:04:15.719Z,99812.78
2023-03-25T18:06:45.114Z,99823.75
2023-03-25T18:09:17.118Z,99833.66
2023-03-25T18:11:45.851Z,99832.53
2023-03-25T18:14:13.776Z,99833.50
2023-03-25T18:16:41.492Z,99837.00
2023-03-25T18:19:14.541Z,99846.47
2023-03-25T18:21:45.349Z,99844.53
2023-03-25T18:24:15.214Z,99852.59
2023-03-25T18:26:44.372Z,99849.56
2023-03-25T18:29:17.324Z,99850.78
2023-03-25T18:31:44.994Z,99853.16
2023-03-25T18:34:13.672Z,99856.09
2023-03-25T18:36:41.760Z,99870.84
2023-03-25T18:39:14.859Z,99866.28
2023-03-25T18:41:42.773Z,99868.22
2023-03-25T18:44:11.379Z,99854.41
2023-03-25T18:46:40.195Z,99876.84
2023-03-25T18:49:13.349Z,99865.44
2023-03-25T18:51:41.028Z,99862.34
2023-03-25T18:54:08.545Z,99867.50
2023-03-25T18:56:37.877Z,99864.03
2023-03-25T18:59:05.836Z,99866.81
2023-03-25T19:01:34.479Z,99875.84
2023-03-25T19:04:03.343Z,99879.22
2023-03-25T19:06:31.964Z,99882.81
2023-03-25T19:09:01.339Z,99890.34
2023-03-25T19:11:33.589Z,99896.19
2023-03-25T19:14:03.466Z,99899.22
2023-03-25T19:16:32.044Z,99894.22
2023-03-25T19:19:00.364Z,99893.38
2023-03-25T19:21:28.041Z,99896.19
2023-03-25T19:23:55.889Z,99891.56
2023-03-25T19:26:23.778Z,99890.47
2023-03-25T19:28:51.963Z,99885.44
2023-03-25T19:31:21.162Z,99883.91
2023-03-25T19:33:48.835Z,99880.84
2023-03-25T19:36:18.858Z,99896.72
2023-03-25T19:38:46.738Z,99893.00
2023-03-25T19:41:16.440Z,99903.28
2023-03-25T19:43:44.403Z,99903.03
2023-03-25T19:46:12.497Z,99903.88
2023-03-25T19:48:41.675Z,99899.41
2023-03-25T19:51:09.438Z,99891.75
2023-03-25T19:53:37.043Z,99895.38
2023-03-25T19:56:05.787Z,99886.47
2023-03-25T19:58:34.457Z,99888.97
2023-03-25T20:01:02.315Z,99887.16
2023-03-25T20:03:32.572Z,99888.28
2023-03-25T20:06:06.349Z,99887.56
2023-03-25T20:08:34.539Z,99888.53
2023-03-25T20:11:09.016Z,99885.19
2023-03-25T20:13:36.949Z,99893.97
2023-03-25T20:16:05.038Z,99887.16
2023-03-25T20:18:33.685Z,99875.59
2023-03-25T20:21:03.464Z,99886.56
2023-03-25T20:23:31.160Z,99891.88
2023-03-25T20:25:58.694Z,99896.59
2023-03-25T20:28:26.497Z,99894.91
2023-03-25T20:30:55.234Z,99893.94
2023-03-25T20:33:23.914Z,99897.56
2023-03-25T20:35:51.843Z,99898.53
2023-03-25T20:38:21.432Z,99891.84
2023-03-25T20:40:50.370Z,99892.81
2023-03-25T20:43:18.792Z,99891.16
2023-03-25T20:45:46.448Z,99898.09
2023-03-25T20:48:14.532Z,99894.47
2023-03-25T20:50:43.404Z,99893.66
2023-03-25T20:53:10.954Z,99891.72
2023-03-25T20:55:40.288Z,99903.97
2023-03-25T20:58:08.703Z,99903.00
2023-03-25T21:00:37.293Z,99904.50
2023-03-25T21:03:05.217Z,99908.56
2023-03-25T21:05:33.317Z,99909.41
2023-03-25T21:08:01.120Z,99914.56
2023-03-25T21:10:28.717Z,99912.22
2023-03-25T21:12:57.672Z,99911.50
2023-03-25T21:15:26.102Z,99924.59
2023-03-25T21:17:53.973Z,99917.38
2023-03-25T21:20:23.787Z,99921.84
2023-03-25T21:22:51.389Z,99917.53
2023-03-25T21:25:19.168Z,99925.47
2023-03-25T21:27:46.936Z,99922.81
2023-03-25T21:30:16.525Z,99934.94
2023-03-25T21:32:44.861Z,99936.34
2023-03-25T21:35:14.390Z,99934.53
2023-03-25T21:37:41.944Z,99935.34
2023-03-25T21:40:11.716Z,99937.84
2023-03-25T21:42:42.365Z,99937.84
2023-03-25T21:45:13.632Z,99942.91
2023-03-25T21:47:44.952Z,99945.25
2023-03-25T21:50:16.339Z,99943.59
2023-03-25T21:52:46.458Z,99952.94
2023-03-25T21:55:16.920Z,99949.47
2023-03-25T21:57:47.431Z,99950.28
2023-03-25T22:00:19.422Z,99950.16
2023-03-25T22:02:49.317Z,99955.28
2023-03-25T22:05:17.729Z,99952.66
2023-03-25T22:07:45.373Z,99955.97
2023-03-25T22:10:13.114Z,99952.50
2023-03-25T22:12:41.514Z,99957.53
2023-03-25T22:15:11.162Z,99958.22
2023-03-25T22:17:39.515Z,99969.41
2023-03-25T22:20:10.103Z,99957.25
2023-03-25T22:22:38.357Z,99962.84
2023-03-25T22:25:07.739Z,99963.13
2023-03-25T22:27:35.878Z,99970.91
2023-03-25T22:30:03.596Z,99965.50
2023-03-25T22:32:31.317Z,99971.50
2023-03-25T22:34:59.325Z,99970.25
2023-03-25T22:37:28.301Z,99969.41
2023-03-25T22:39:56.012Z,99970.25
2023-03-25T22:42:25.622Z,99973.59
2023-03-25T22:44:54.767Z,99978.47
2023-03-25T22:47:22.353Z,99975.69
2023-03-25T22:52:43.361Z,99972.88
2023-03-25T22:55:11.691Z,99978.03
2023-03-25T22:57:39.400Z,99986.84
2023-03-25T23:00:14.028Z,99996.47
2023-03-25T23:02:42.454Z,99997.44
2023-03-25T23:05:11.387Z,99997.44
2023-03-25T23:07:39.016Z,99999.94
2023-03-25T23:10:09.231Z,100003.56
2023-03-25T23:12:36.997Z,100009.56
2023-03-25T23:15:05.122Z,100003.44
2023-03-25T23:17:36.406Z,100002.31
2023-03-25T23:20:08.346Z,100007.75
2023-03-25T23:22:35.899Z,100004.28
2023-03-25T23:25:04.789Z,100006.94
2023-03-25T23:27:36.361Z,100004.13
2023-03-25T23:30:05.171Z,100005.09
2023-03-25T23:32:34.613Z,99999.81
2023-03-25T23:35:03.400Z,100004.00
2023-03-25T23:37:33.905Z,99999.25
2023-03-25T23:40:01.544Z,100004.84
2023-03-25T23:42:34.774Z,100014.59
2023-03-25T23:45:06.248Z,100012.78
2023-03-25T23:47:33.820Z,100008.44
2023-03-25T23:50:02.089Z,100016.38
2023-03-25T23:52:33.391Z,100033.84
2023-03-25T23:55:01.857Z,100028.94
2023-03-25T23:57:30.224Z,100030.75
2023-03-25T23:59:57.794Z,100030.06
